createdAt,value
2022-11-19T00:00:02.881Z,101041.50
2022-11-19T00:02:32.013Z,101038.63
2022-11-19T00:05:05.426Z,101045.47
2022-11-19T00:07:34.075Z,101050.97
2022-11-19T00:10:02.453Z,101045.13
2022-11-19T00:12:49.339Z,101050.34
2022-11-19T00:15:18.052Z,101053.06
2022-11-19T00:17:46.683Z,101058.41
2022-11-19T00:20:18.950Z,101055.72
2022-11-19T00:22:52.205Z,101068.75
2022-11-19T00:25:22.461Z,101059.84
2022-11-19T00:27:51.498Z,101061.19
2022-11-19T00:30:46.408Z,101066.88
2022-11-19T00:33:10.137Z,101062.81
2022-11-19T00:35:43.531Z,101072.06
2022-11-19T00:38:12.620Z,101061.25
2022-11-19T00:40:41.508Z,101060.38
2022-11-19T00:43:27.706Z,101070.16
2022-11-19T00:45:56.921Z,101077.09
2022-11-19T00:48:26.447Z,101068.72
2022-11-19T00:51:00.019Z,101069.63
2022-11-19T00:53:29.617Z,101061.63
2022-11-19T00:56:03.839Z,101068.94
2022-11-19T00:58:33.123Z,101080.66
2022-11-19T01:01:02.939Z,101090.47
2022-11-19T01:03:31.983Z,101091.25
2022-11-19T01:06:15.253Z,101102.47
2022-11-19T01:08:50.152Z,101101.75
2022-11-19T01:11:21.458Z,101101.03
2022-11-19T01:13:52.382Z,101115.84
2022-11-19T01:16:26.671Z,101120.66
2022-11-19T01:18:56.183Z,101115.16
2022-11-19T01:21:29.304Z,101121.22
2022-11-19T01:23:59.114Z,101121.53
2022-11-19T01:26:29.156Z,101128.88
2022-11-19T01:28:58.657Z,101128.13
2022-11-19T01:31:31.006Z,101123.13
2022-11-19T01:34:00.953Z,101141.31
2022-11-19T01:36:33.300Z,101142.06
2022-11-19T01:39:02.661Z,101133.50
2022-11-19T01:41:34.787Z,101143.63
2022-11-19T01:44:05.582Z,101129.22
2022-11-19T01:46:37.209Z,101144.88
2022-11-19T01:49:18.995Z,101132.06
2022-11-19T01:51:56.096Z,101144.69
2022-11-19T01:54:32.529Z,101139.50
2022-11-19T01:57:08.484Z,101142.13
2022-11-19T01:59:37.747Z,101156.03
2022-11-19T02:02:08.387Z,101145.56
2022-11-19T02:04:38.009Z,101151.25
2022-11-19T02:07:11.140Z,101164.69
2022-11-19T02:09:41.650Z,101154.75
2022-11-19T02:12:29.788Z,101166.97
2022-11-19T02:15:17.910Z,101165.25
2022-11-19T02:18:08.207Z,101164.34
2022-11-19T02:20:53.989Z,101159.31
2022-11-19T02:24:13.721Z,101172.34
2022-11-19T02:27:27.006Z,101164.09
2022-11-19T02:30:25.825Z,101164.84
2022-11-19T02:33:08.156Z,101162.47
2022-11-19T02:35:56.549Z,101157.06
2022-11-19T02:38:33.437Z,101182.69
2022-11-19T02:41:31.284Z,101181.34
2022-11-19T02:44:28.251Z,101173.19
2022-11-19T02:47:01.047Z,101176.06
2022-11-19T02:49:33.505Z,101178.97
2022-11-19T02:52:02.638Z,101185.47
2022-11-19T02:54:32.038Z,101174.19
2022-11-19T02:57:06.005Z,101176.44
2022-11-19T02:59:59.137Z,101185.81
2022-11-19T03:02:53.052Z,101173.31
2022-11-19T03:05:25.976Z,101177.28
2022-11-19T03:07:55.891Z,101180.19
2022-11-19T03:10:31.149Z,101183.00
2022-11-19T03:13:25.477Z,101178.34
2022-11-19T03:16:15.812Z,101169.38
2022-11-19T03:18:53.102Z,101189.25
2022-11-19T03:21:26.271Z,101179.44
2022-11-19T03:24:01.476Z,101189.66
2022-11-19T03:26:36.589Z,101192.66
2022-11-19T03:29:10.439Z,101202.72
2022-11-19T03:31:42.490Z,101195.19
2022-11-19T03:34:20.477Z,101193.88
2022-11-19T03:36:55.093Z,101201.00
2022-11-19T03:39:27.609Z,101201.31
2022-11-19T03:41:58.538Z,101198.72
2022-11-19T03:44:33.774Z,101213.47
2022-11-19T03:47:06.295Z,101209.56
2022-11-19T03:49:42.097Z,101220.88
2022-11-19T03:52:13.971Z,101221.63
2022-11-19T03:54:43.778Z,101227.84
2022-11-19T03:57:16.395Z,101224.00
2022-11-19T03:59:45.025Z,101235.47
2022-11-19T04:02:15.212Z,101235.56
2022-11-19T04:04:45.108Z,101239.31
2022-11-19T04:07:16.862Z,101240.81
2022-11-19T04:09:45.758Z,101248.94
2022-11-19T04:12:18.930Z,101251.53
2022-11-19T04:14:48.320Z,101248.22
2022-11-19T04:17:17.626Z,101252.22
2022-11-19T04:19:47.421Z,101255.75
2022-11-19T04:22:16.338Z,101255.47
2022-11-19T04:24:44.737Z,101262.09
2022-11-19T04:27:14.091Z,101250.69
2022-11-19T04:29:42.513Z,101261.81
2022-11-19T04:32:10.957Z,101272.75
2022-11-19T04:34:39.713Z,101278.47
2022-11-19T04:37:09.780Z,101259.72
2022-11-19T04:39:38.144Z,101281.00
2022-11-19T04:42:06.844Z,101275.88
2022-11-19T04:44:35.508Z,101285.38
2022-11-19T04:47:03.734Z,101286.34
2022-11-19T04:49:31.878Z,101292.06
2022-11-19T04:52:02.115Z,101287.88
2022-11-19T04:54:32.060Z,101288.81
2022-11-19T04:57:00.522Z,101293.50
2022-11-19T04:59:29.672Z,101299.63
2022-11-19T05:02:04.630Z,101290.81
2022-11-19T05:04:32.824Z,101297.66
2022-11-19T05:07:01.456Z,101304.44
2022-11-19T05:09:31.427Z,101304.38
2022-11-19T05:11:59.979Z,101314.47
2022-11-19T05:14:30.642Z,101312.34
2022-11-19T05:16:59.253Z,101299.72
2022-11-19T05:19:27.710Z,101313.00
2022-11-19T05:21:56.225Z,101309.88
2022-11-19T05:24:25.182Z,101314.56
2022-11-19T05:26:57.519Z,101318.47
2022-11-19T05:29:26.116Z,101322.16
2022-11-19T05:31:55.531Z,101328.19
2022-11-19T05:34:24.498Z,101315.81
2022-11-19T05:36:53.104Z,101320.47
2022-11-19T05:39:22.732Z,101319.66
2022-11-19T05:41:51.406Z,101325.25
2022-11-19T05:44:21.313Z,101320.25
2022-11-19T05:46:49.877Z,101317.81
2022-11-19T05:49:18.856Z,101332.59
2022-11-19T05:51:48.252Z,101330.81
2022-11-19T05:54:16.798Z,101346.13
2022-11-19T05:56:46.532Z,101343.59
2022-11-19T05:59:15.667Z,101345.56
2022-11-19T06:01:45.374Z,101341.66
2022-11-19T06:04:14.002Z,101339.72
2022-11-19T06:06:42.556Z,101339.88
2022-11-19T06:09:11.994Z,101342.91
2022-11-19T06:11:50.490Z,101339.88
2022-11-19T06:14:22.494Z,101346.53
2022-11-19T06:16:53.788Z,101349.19
2022-11-19T06:19:23.044Z,101354.44
2022-11-19T06:21:52.794Z,101361.25
2022-11-19T06:24:21.739Z,101356.34
2022-11-19T06:26:50.595Z,101366.09
2022-11-19T06:29:20.981Z,101358.97
2022-11-19T06:31:51.363Z,101366.16
2022-11-19T06:34:20.448Z,101381.53
2022-11-19T06:36:50.704Z,101374.47
2022-11-19T06:39:20.753Z,101382.66
2022-11-19T06:41:49.802Z,101393.81
2022-11-19T06:44:19.338Z,101384.19
2022-11-19T06:46:49.058Z,101395.38
2022-11-19T06:49:20.456Z,101387.88
2022-11-19T06:51:51.774Z,101391.63
2022-11-19T06:54:20.130Z,101395.31
2022-11-19T06:56:48.925Z,101408.47
2022-11-19T06:59:17.982Z,101398.47
2022-11-19T07:01:46.369Z,101403.50
2022-11-19T07:04:16.233Z,101414.72
2022-11-19T07:06:46.395Z,101399.69
2022-11-19T07:09:15.243Z,101407.63
2022-11-19T07:11:43.622Z,101412.44
2022-11-19T07:14:12.387Z,101416.75
2022-11-19T07:16:40.975Z,101404.88
2022-11-19T07:19:10.062Z,101416.75
2022-11-19T07:21:38.907Z,101426.91
2022-11-19T07:24:11.665Z,101430.81
2022-11-19T07:26:40.429Z,101429.56
2022-11-19T07:29:10.235Z,101422.47
2022-11-19T07:31:39.121Z,101432.19
2022-11-19T07:34:08.457Z,101424.38
2022-11-19T07:36:37.628Z,101448.75
2022-11-19T07:39:11.887Z,101443.38
2022-11-19T07:41:57.774Z,101446.16
2022-11-19T07:44:26.148Z,101454.47
2022-11-19T07:46:55.730Z,101440.94
2022-11-19T07:49:25.026Z,101460.41
2022-11-19T07:51:55.008Z,101458.19
2022-11-19T07:54:28.191Z,101462.50
2022-11-19T07:56:57.426Z,101473.09
2022-11-19T07:59:27.056Z,101479.81
2022-11-19T08:01:56.421Z,101464.34
2022-11-19T08:04:26.147Z,101493.41
2022-11-19T08:06:54.863Z,101485.56
2022-11-19T08:09:25.309Z,101489.88
2022-11-19T08:11:53.709Z,101492.22
2022-11-19T08:14:25.505Z,101490.84
2022-11-19T08:17:11.865Z,101501.47
2022-11-19T08:19:42.937Z,101499.66
2022-11-19T08:22:16.278Z,101500.78
2022-11-19T08:24:49.496Z,101505.53
2022-11-19T08:27:18.675Z,101514.41
2022-11-19T08:29:48.032Z,101501.19
2022-11-19T08:32:18.368Z,101519.06
2022-11-19T08:34:47.142Z,101512.22
2022-11-19T08:37:18.809Z,101490.69
2022-11-19T08:39:51.132Z,101491.66
2022-11-19T08:42:37.669Z,101501.56
2022-11-19T08:45:11.312Z,101511.28
2022-11-19T08:47:40.180Z,101515.38
2022-11-19T08:50:13.449Z,101507.34
2022-11-19T08:52:45.109Z,101506.09
2022-11-19T08:55:15.657Z,101507.03
2022-11-19T08:57:44.897Z,101521.72
2022-11-19T09:00:18.147Z,101519.19
2022-11-19T09:02:49.130Z,101520.41
2022-11-19T09:05:20.332Z,101512.09
2022-11-19T09:07:48.963Z,101522.00
2022-11-19T09:10:20.281Z,101515.56
2022-11-19T09:12:49.657Z,101522.88
2022-11-19T09:15:19.498Z,101527.78
2022-11-19T09:17:49.015Z,101529.59
2022-11-19T09:20:18.501Z,101531.06
2022-11-19T09:22:50.114Z,101529.31
2022-11-19T09:25:27.168Z,101521.28
2022-11-19T09:28:02.778Z,101531.47
2022-11-19T09:30:36.360Z,101537.69
2022-11-19T09:33:05.785Z,101539.00
2022-11-19T09:35:34.769Z,101537.47
2022-11-19T09:38:11.424Z,101538.34
2022-11-19T09:40:47.088Z,101531.03
2022-11-19T09:43:25.928Z,101533.31
2022-11-19T09:46:28.313Z,101539.75
2022-11-19T09:49:01.473Z,101547.38
2022-11-19T09:51:39.517Z,101557.22
2022-11-19T09:54:17.205Z,101548.06
2022-11-19T09:56:59.088Z,101556.41
2022-11-19T09:59:39.847Z,101553.38
2022-11-19T10:02:19.899Z,101557.69
2022-11-19T10:04:54.021Z,101557.22
2022-11-19T10:07:43.057Z,101556.41
2022-11-19T10:10:36.774Z,101558.97
2022-11-19T10:13:30.327Z,101543.88
2022-11-19T10:16:20.013Z,101550.16
2022-11-19T10:19:04.208Z,101544.56
2022-11-19T10:21:42.056Z,101547.03
2022-11-19T10:24:28.698Z,101560.00
2022-11-19T10:28:02.389Z,101555.63
2022-11-19T10:30:32.894Z,101559.03
2022-11-19T10:33:09.815Z,101561.38
2022-11-19T10:35:45.139Z,101566.91
2022-11-19T10:38:24.661Z,101567.91
2022-11-19T10:41:01.334Z,101575.13
2022-11-19T10:43:41.902Z,101547.66
2022-11-19T10:46:21.438Z,101554.97
2022-11-19T10:48:54.111Z,101555.91
2022-11-19T10:51:31.639Z,101555.97
2022-11-19T10:54:02.856Z,101546.63
2022-11-19T10:56:39.222Z,101545.78
2022-11-19T10:59:16.795Z,101548.88
2022-11-19T11:01:52.872Z,101550.06
2022-11-19T11:04:24.932Z,101543.47
2022-11-19T11:06:57.436Z,101541.88
2022-11-19T11:09:39.232Z,101537.53
2022-11-19T11:12:45.000Z,101530.75
2022-11-19T11:15:18.975Z,101546.84
2022-11-19T11:18:04.383Z,101523.66
2022-11-19T11:20:38.293Z,101528.50
2022-11-19T11:23:16.067Z,101524.38
2022-11-19T11:25:55.900Z,101527.28
2022-11-19T11:28:25.937Z,101520.47
2022-11-19T11:30:58.618Z,101512.25
2022-11-19T11:33:36.722Z,101515.41
2022-11-19T11:36:12.571Z,101521.13
2022-11-19T11:38:47.118Z,101521.06
2022-11-19T11:42:03.697Z,101500.56
2022-11-19T11:44:23.868Z,101504.19
2022-11-19T11:46:57.002Z,101507.78
2022-11-19T11:49:35.233Z,101503.41
2022-11-19T11:52:29.662Z,101504.84
2022-11-19T11:55:02.208Z,101499.84
2022-11-19T11:57:34.331Z,101504.72
2022-11-19T12:00:34.230Z,101509.09
2022-11-19T12:03:04.960Z,101508.59
2022-11-19T12:05:58.338Z,101504.84
2022-11-19T12:08:50.174Z,101490.75
2022-11-19T12:11:28.004Z,101502.75
2022-11-19T12:14:09.573Z,101492.09
2022-11-19T12:16:52.280Z,101491.00
2022-11-19T12:20:03.055Z,101477.69
2022-11-19T12:22:51.612Z,101498.81
2022-11-19T12:25:31.534Z,101494.19
2022-11-19T12:28:28.417Z,101489.31
2022-11-19T12:31:10.499Z,101501.19
2022-11-19T12:34:07.249Z,101502.00
2022-11-19T12:36:49.700Z,101505.00
2022-11-19T12:39:36.910Z,101506.72
2022-11-19T12:42:29.895Z,101512.63
2022-11-19T12:45:10.187Z,101518.13
2022-11-19T12:48:02.260Z,101516.47
2022-11-19T12:50:39.106Z,101510.81
2022-11-19T12:53:23.656Z,101517.63
2022-11-19T12:56:08.224Z,101511.19
2022-11-19T12:58:51.927Z,101521.63
2022-11-19T13:01:27.128Z,101501.72
2022-11-19T13:04:06.232Z,101517.41
2022-11-19T13:06:42.419Z,101510.19
2022-11-19T13:09:19.611Z,101512.28
2022-11-19T13:11:55.532Z,101504.56
2022-11-19T13:14:41.164Z,101504.38
2022-11-19T13:17:22.271Z,101488.41
2022-11-19T13:20:00.392Z,101493.00
2022-11-19T13:22:37.800Z,101496.69
2022-11-19T13:25:16.952Z,101498.56
2022-11-19T13:27:48.704Z,101492.72
2022-11-19T13:30:51.949Z,101493.94
2022-11-19T13:33:34.299Z,101491.34
2022-11-19T13:36:16.450Z,101491.38
2022-11-19T13:38:52.819Z,101487.22
2022-11-19T13:41:35.486Z,101492.56
2022-11-19T13:44:38.103Z,101499.97
2022-11-19T13:47:20.666Z,101487.38
2022-11-19T13:50:01.199Z,101481.41
2022-11-19T13:52:45.368Z,101473.56
2022-11-19T13:55:33.791Z,101479.53
2022-11-19T13:58:31.492Z,101484.19
2022-11-19T14:01:51.250Z,101488.06
2022-11-19T14:06:03.599Z,101493.84
2022-11-19T14:08:54.671Z,101501.94
2022-11-19T14:12:06.325Z,101494.81
2022-11-19T14:15:19.665Z,101504.13
2022-11-19T14:18:15.673Z,101504.66
2022-11-19T14:21:03.691Z,101497.09
2022-11-19T14:24:05.706Z,101495.47
2022-11-19T14:27:17.656Z,101490.09
2022-11-19T14:30:08.997Z,101501.69
2022-11-19T14:32:56.307Z,101501.06
2022-11-19T14:35:44.414Z,101506.59
2022-11-19T14:38:47.727Z,101504.25
2022-11-19T14:41:32.383Z,101511.69
2022-11-19T14:44:36.677Z,101496.31
2022-11-19T14:47:37.036Z,101513.53
2022-11-19T14:50:27.434Z,101504.66
2022-11-19T14:56:40.520Z,101512.69
2022-11-19T14:59:23.806Z,101514.78
2022-11-19T15:01:59.484Z,101523.78
2022-11-19T15:04:37.053Z,101510.69
2022-11-19T15:07:18.110Z,101507.34
2022-11-19T15:10:32.346Z,101511.94
2022-11-19T15:13:26.044Z,101517.78
2022-11-19T15:16:03.143Z,101516.84
2022-11-19T15:19:29.044Z,101513.75
2022-11-19T15:22:27.018Z,101521.97
2022-11-19T15:25:36.474Z,101522.28
2022-11-19T15:28:48.894Z,101518.66
2022-11-19T15:31:37.326Z,101521.59
2022-11-19T15:34:49.192Z,101519.16
2022-11-19T15:37:39.928Z,101520.34
2022-11-19T15:40:17.634Z,101521.50
2022-11-19T15:42:54.701Z,101522.66
2022-11-19T15:45:28.361Z,101532.31
2022-11-19T15:48:09.496Z,101533.59
2022-11-19T15:50:38.809Z,101526.78
2022-11-19T15:53:21.608Z,101526.16
2022-11-19T15:55:55.747Z,101532.38
2022-11-19T15:58:31.189Z,101528.81
2022-11-19T16:01:00.050Z,101538.00
2022-11-19T16:03:32.431Z,101527.09
2022-11-19T16:06:12.074Z,101536.78
2022-11-19T16:08:45.836Z,101546.03
2022-11-19T16:11:35.692Z,101551.38
2022-11-19T16:14:43.164Z,101556.72
2022-11-19T16:17:43.198Z,101548.88
2022-11-19T16:20:22.616Z,101555.09
2022-11-19T16:22:59.492Z,101556.47
2022-11-19T16:25:35.983Z,101547.28
2022-11-19T16:28:09.738Z,101551.59
2022-11-19T16:30:49.003Z,101572.88
2022-11-19T16:33:21.041Z,101565.09
2022-11-19T16:35:53.310Z,101560.75
2022-11-19T16:38:28.721Z,101565.91
2022-11-19T16:41:16.641Z,101580.94
2022-11-19T16:43:48.698Z,101574.38
2022-11-19T16:46:22.935Z,101569.06
2022-11-19T16:48:58.666Z,101570.59
2022-11-19T16:51:39.883Z,101571.66
2022-11-19T16:54:11.596Z,101579.56
2022-11-19T16:56:46.133Z,101583.06
2022-11-19T16:59:22.254Z,101588.47
2022-11-19T17:01:56.554Z,101579.16
2022-11-19T17:04:29.449Z,101589.63
2022-11-19T17:06:59.474Z,101575.47
2022-11-19T17:09:44.626Z,101577.34
2022-11-19T17:12:29.202Z,101582.78
2022-11-19T17:15:56.174Z,101583.59
2022-11-19T17:18:19.731Z,101580.25
2022-11-19T17:20:54.920Z,101583.75
2022-11-19T17:23:25.444Z,101582.09
2022-11-19T17:25:58.407Z,101589.06
2022-11-19T17:28:38.259Z,101587.44
2022-11-19T17:31:16.486Z,101581.38
2022-11-19T17:33:54.159Z,101569.16
2022-11-19T17:36:25.918Z,101571.75
2022-11-19T17:38:55.193Z,101560.44
2022-11-19T17:41:45.333Z,101567.34
2022-11-19T17:44:40.428Z,101570.06
2022-11-19T17:47:22.173Z,101583.28
2022-11-19T17:49:53.068Z,101581.59
2022-11-19T17:52:25.926Z,101576.44
2022-11-19T17:54:58.325Z,101574.59
2022-11-19T17:57:26.864Z,101571.09
2022-11-19T17:59:57.246Z,101578.19
2022-11-19T18:02:29.230Z,101582.69
2022-11-19T18:04:58.252Z,101586.13
2022-11-19T18:07:27.235Z,101585.47
2022-11-19T18:09:55.984Z,101585.50
2022-11-19T18:12:25.057Z,101577.59
2022-11-19T18:14:56.790Z,101575.91
2022-11-19T18:17:31.039Z,101579.38
2022-11-19T18:20:00.213Z,101564.59
2022-11-19T18:22:28.944Z,101570.66
2022-11-19T18:24:57.404Z,101575.13
2022-11-19T18:27:26.090Z,101576.72
2022-11-19T18:29:54.953Z,101575.88
2022-11-19T18:32:23.674Z,101569.03
2022-11-19T18:35:00.628Z,101584.81
2022-11-19T18:37:38.248Z,101583.09
2022-11-19T18:40:13.875Z,101585.84
2022-11-19T18:43:07.818Z,101584.84
2022-11-19T18:45:35.923Z,101577.03
2022-11-19T18:48:06.423Z,101567.28
2022-11-19T18:50:37.494Z,101574.38
2022-11-19T18:53:07.294Z,101572.56
2022-11-19T18:55:41.603Z,101572.56
2022-11-19T18:58:10.600Z,101566.44
2022-11-19T19:00:39.504Z,101573.44
2022-11-19T19:03:12.383Z,101564.66
2022-11-19T19:05:50.504Z,101563.94
2022-11-19T19:08:20.724Z,101573.63
2022-11-19T19:10:51.508Z,101578.91
2022-11-19T19:13:19.508Z,101577.09
2022-11-19T19:15:49.541Z,101571.84
2022-11-19T19:18:18.884Z,101571.84
2022-11-19T19:20:57.585Z,101579.72
2022-11-19T19:23:27.966Z,101582.53
2022-11-19T19:26:00.588Z,101586.09
2022-11-19T19:28:30.513Z,101580.94
2022-11-19T19:31:02.813Z,101578.09
2022-11-19T19:33:33.883Z,101578.91
2022-11-19T19:36:08.230Z,101586.03
2022-11-19T19:39:02.254Z,101577.16
2022-11-19T19:41:32.044Z,101585.03
2022-11-19T19:44:07.742Z,101576.44
2022-11-19T19:46:37.265Z,101577.25
2022-11-19T19:49:09.082Z,101570.25
2022-11-19T19:51:49.388Z,101584.25
2022-11-19T19:54:18.506Z,101575.50
2022-11-19T19:56:51.066Z,101583.47
2022-11-19T19:59:22.741Z,101575.66
2022-11-19T20:01:51.802Z,101578.44
2022-11-19T20:04:21.815Z,101580.91
2022-11-19T20:06:56.160Z,101577.38
2022-11-19T20:09:28.250Z,101584.47
2022-11-19T20:11:57.325Z,101573.06
2022-11-19T20:14:29.008Z,101566.06
2022-11-19T20:17:03.244Z,101566.03
2022-11-19T20:19:37.121Z,101575.78
2022-11-19T20:22:07.523Z,101575.75
2022-11-19T20:24:37.141Z,101576.66
2022-11-19T20:27:17.693Z,101576.66
2022-11-19T20:29:50.585Z,101581.97
2022-11-19T20:32:19.876Z,101587.19
2022-11-19T20:34:49.291Z,101588.97
2022-11-19T20:37:19.596Z,101594.25
2022-11-19T20:39:48.477Z,101588.16
2022-11-19T20:42:35.003Z,101606.59
2022-11-19T20:45:04.663Z,101596.97
2022-11-19T20:47:33.959Z,101602.25
2022-11-19T20:50:03.617Z,101598.72
2022-11-19T20:52:34.706Z,101605.75
2022-11-19T20:55:06.782Z,101585.50
2022-11-19T20:57:35.875Z,101599.59
2022-11-19T21:00:06.310Z,101609.28
2022-11-19T21:02:35.494Z,101604.06
2022-11-19T21:05:07.440Z,101604.03
2022-11-19T21:07:37.640Z,101597.03
2022-11-19T21:10:08.329Z,101595.25
2022-11-19T21:12:57.928Z,101611.03
2022-11-19T21:15:30.097Z,101603.19
2022-11-19T21:17:59.453Z,101601.38
2022-11-19T21:20:27.863Z,101595.25
2022-11-19T21:22:58.227Z,101590.91
2022-11-19T21:25:27.149Z,101589.06
2022-11-19T21:27:55.608Z,101580.38
2022-11-19T21:30:24.995Z,101589.13
2022-11-19T21:32:55.013Z,101589.09
2022-11-19T21:35:23.603Z,101591.75
2022-11-19T21:37:53.288Z,101588.25
2022-11-19T21:40:24.378Z,101597.94
2022-11-19T21:42:54.671Z,101593.53
2022-11-19T21:45:23.190Z,101584.72
2022-11-19T21:47:51.748Z,101581.22
2022-11-19T21:50:20.123Z,101574.19
2022-11-19T21:52:48.945Z,101561.88
2022-11-19T21:55:17.610Z,101561.88
2022-11-19T21:57:47.818Z,101570.69
2022-11-19T22:00:17.224Z,101570.69
2022-11-19T22:02:47.326Z,101572.44
2022-11-19T22:05:16.237Z,101569.00
2022-11-19T22:07:46.560Z,101570.75
2022-11-19T22:10:15.891Z,101565.47
2022-11-19T22:12:46.523Z,101564.63
2022-11-19T22:15:17.938Z,101574.28
2022-11-19T22:17:48.133Z,101565.50
2022-11-19T22:20:17.247Z,101566.41
2022-11-19T22:22:46.669Z,101558.53
2022-11-19T22:25:16.141Z,101559.34
2022-11-19T22:27:44.689Z,101556.75
2022-11-19T22:30:16.317Z,101562.06
2022-11-19T22:32:45.100Z,101553.28
2022-11-19T22:35:14.980Z,101564.75
2022-11-19T22:37:45.130Z,101556.81
2022-11-19T22:40:14.715Z,101558.56
2022-11-19T22:42:43.290Z,101572.69
2022-11-19T22:45:11.913Z,101557.69
2022-11-19T22:47:42.851Z,101565.56
2022-11-19T22:50:12.085Z,101552.47
2022-11-19T22:52:41.950Z,101562.09
2022-11-19T22:55:11.129Z,101554.13
2022-11-19T22:57:39.743Z,101559.44
2022-11-19T23:00:13.738Z,101554.19
2022-11-19T23:02:44.601Z,101549.75
2022-11-19T23:05:13.182Z,101548.88
2022-11-19T23:07:41.906Z,101540.09
2022-11-19T23:10:13.313Z,101546.25
2022-11-19T23:12:59.097Z,101542.69
2022-11-19T23:15:27.735Z,101535.66
2022-11-19T23:17:58.223Z,101537.53
2022-11-19T23:20:27.425Z,101537.44
2022-11-19T23:22:55.802Z,101543.59
2022-11-19T23:25:25.170Z,101535.75
2022-11-19T23:27:53.846Z,101527.88
2022-11-19T23:30:25.429Z,101537.50
2022-11-19T23:33:06.129Z,101524.31
2022-11-19T23:35:37.611Z,101522.66
2022-11-19T23:38:06.538Z,101519.94
2022-11-19T23:40:35.196Z,101520.84
2022-11-19T23:43:04.171Z,101508.59
2022-11-19T23:45:34.775Z,101507.72
2022-11-19T23:48:03.926Z,101508.56
2022-11-19T23:50:33.276Z,101499.78
2022-11-19T23:53:03.625Z,101514.72
2022-11-19T23:55:32.079Z,101512.97
2022-11-19T23:58:00.495Z,101515.69
